SVA101 OERK-OEJN
Flight info
| Callsign | SVA101 |
|---|---|
| Flight time | 1h 25m |
| Altitude | 38000 |
| Route | DURMA G782 VEMEM |
| Aircraft | A321/M-SDE2E3FGHIRWY/L |
Departure
| Time | 2026-04-28 21:53 |
|---|---|
| Airport | King Khalid International Airport (OERK) |
Arrival
| Time | 2026-04-28 23:18 |
|---|---|
| Airport | King Abdulaziz International Airport (OEJN) |
| Time | Latitude | Longitude | Altitude | Speed | Heading |
|---|---|---|---|---|---|
| 2026-04-28 21:30 | 24.95532 | 46.70665 | 2039 ft | 0 kts | 312° |
| 2026-04-28 21:43 | 24.95525 | 46.70673 | 2031 ft | 4 kts | 311° |
| 2026-04-28 21:43 | 24.95507 | 46.70695 | 2037 ft | 4 kts | 309° |
| 2026-04-28 21:43 | 24.95490 | 46.70719 | 2039 ft | 4 kts | 306° |
| 2026-04-28 21:44 | 24.95481 | 46.70733 | 2041 ft | 0 kts | 303° |
| 2026-04-28 21:45 | 24.95482 | 46.70733 | 2041 ft | 1 kts | 304° |
| 2026-04-28 21:46 | 24.95492 | 46.70736 | 2041 ft | 2 kts | 38° |
| 2026-04-28 21:46 | 24.95507 | 46.70758 | 2032 ft | 6 kts | 57° |
| 2026-04-28 21:46 | 24.95526 | 46.70793 | 2033 ft | 5 kts | 60° |
| 2026-04-28 21:46 | 24.95540 | 46.70822 | 2035 ft | 4 kts | 60° |
| 2026-04-28 21:47 | 24.95559 | 46.70866 | 2036 ft | 10 kts | 82° |
| 2026-04-28 21:47 | 24.95514 | 46.70915 | 2031 ft | 9 kts | 149° |
| 2026-04-28 21:47 | 24.95463 | 46.70947 | 2035 ft | 8 kts | 150° |
| 2026-04-28 21:47 | 24.95409 | 46.70981 | 2036 ft | 11 kts | 150° |
| 2026-04-28 21:48 | 24.95348 | 46.71021 | 2033 ft | 10 kts | 146° |
| 2026-04-28 21:48 | 24.95334 | 46.71080 | 2031 ft | 7 kts | 72° |
| 2026-04-28 21:48 | 24.95356 | 46.71126 | 2034 ft | 6 kts | 61° |
| 2026-04-28 21:48 | 24.95377 | 46.71167 | 2036 ft | 7 kts | 60° |
| 2026-04-28 21:49 | 24.95416 | 46.71241 | 2037 ft | 14 kts | 62° |
| 2026-04-28 21:49 | 24.95382 | 46.71315 | 2031 ft | 11 kts | 150° |
| 2026-04-28 21:49 | 24.95316 | 46.71357 | 2031 ft | 11 kts | 149° |
| 2026-04-28 21:49 | 24.95255 | 46.71396 | 2037 ft | 11 kts | 150° |
| 2026-04-28 21:50 | 24.95178 | 46.71445 | 2033 ft | 13 kts | 150° |
| 2026-04-28 21:50 | 24.95102 | 46.71493 | 2035 ft | 12 kts | 150° |
| 2026-04-28 21:50 | 24.95031 | 46.71537 | 2034 ft | 12 kts | 150° |
| 2026-04-28 21:50 | 24.94940 | 46.71595 | 2032 ft | 18 kts | 150° |
| 2026-04-28 21:51 | 24.94841 | 46.71663 | 2035 ft | 14 kts | 132° |
| 2026-04-28 21:51 | 24.94838 | 46.71725 | 2032 ft | 12 kts | 65° |
| 2026-04-28 21:51 | 24.94879 | 46.71805 | 2037 ft | 12 kts | 60° |
| 2026-04-28 21:51 | 24.94918 | 46.71878 | 2037 ft | 11 kts | 60° |
| 2026-04-28 21:52 | 24.94965 | 46.71907 | 2032 ft | 10 kts | 6° |
| 2026-04-28 21:52 | 24.95038 | 46.71876 | 2038 ft | 14 kts | 330° |
| 2026-04-28 21:52 | 24.95439 | 46.71622 | 2034 ft | 94 kts | 330° |
| 2026-04-28 21:52 | 24.96175 | 46.71156 | 2031 ft | 149 kts | 330° |
| 2026-04-28 21:53 | 24.96871 | 46.70714 | 2040 ft | 190 kts | 330° |
| 2026-04-28 21:53 | 24.98003 | 46.69992 | 3047 ft | 180 kts | 331° |
| 2026-04-28 21:53 | 24.99046 | 46.69323 | 4122 ft | 168 kts | 332° |
| 2026-04-28 21:53 | 25.00017 | 46.68696 | 5066 ft | 151 kts | 331° |
| 2026-04-28 21:54 | 25.00875 | 46.68147 | 5709 ft | 145 kts | 333° |
| 2026-04-28 21:54 | 25.01634 | 46.67279 | 6048 ft | 171 kts | 283° |
| 2026-04-28 21:54 | 25.01463 | 46.65867 | 6216 ft | 210 kts | 244° |
| 2026-04-28 21:54 | 25.00586 | 46.64532 | 6345 ft | 222 kts | 226° |
| 2026-04-28 21:55 | 24.99486 | 46.63281 | 6478 ft | 233 kts | 225° |
| 2026-04-28 21:55 | 24.98319 | 46.61964 | 6574 ft | 248 kts | 225° |
| 2026-04-28 21:55 | 24.97072 | 46.60558 | 6719 ft | 267 kts | 225° |
| 2026-04-28 21:55 | 24.95795 | 46.59035 | 7071 ft | 279 kts | 231° |
| 2026-04-28 21:56 | 24.94621 | 46.57285 | 7707 ft | 281 kts | 235° |
| 2026-04-28 21:56 | 24.93544 | 46.55491 | 8408 ft | 281 kts | 237° |
| 2026-04-28 21:56 | 24.92506 | 46.53700 | 9129 ft | 281 kts | 237° |
| 2026-04-28 21:56 | 24.91457 | 46.51891 | 9858 ft | 280 kts | 237° |
| 2026-04-28 21:57 | 24.90377 | 46.50058 | 10202 ft | 295 kts | 237° |
| 2026-04-28 21:57 | 24.89208 | 46.48107 | 10321 ft | 315 kts | 236° |
| 2026-04-28 21:57 | 24.87952 | 46.46040 | 10440 ft | 334 kts | 236° |
| 2026-04-28 21:57 | 24.86618 | 46.43862 | 10556 ft | 352 kts | 236° |
| 2026-04-28 21:58 | 24.85225 | 46.41595 | 10837 ft | 362 kts | 236° |
| 2026-04-28 21:58 | 24.83807 | 46.39287 | 11334 ft | 365 kts | 236° |
| 2026-04-28 21:58 | 24.82383 | 46.36968 | 11882 ft | 367 kts | 236° |
| 2026-04-28 21:58 | 24.80949 | 46.34637 | 12432 ft | 368 kts | 236° |
| 2026-04-28 21:59 | 24.79507 | 46.32294 | 12962 ft | 370 kts | 236° |
| 2026-04-28 21:59 | 24.78059 | 46.29944 | 13521 ft | 372 kts | 236° |
| 2026-04-28 21:59 | 24.76606 | 46.27589 | 14033 ft | 373 kts | 236° |
| 2026-04-28 22:00 | 24.73688 | 46.22852 | 14970 ft | 375 kts | 236° |
| 2026-04-28 22:00 | 24.72226 | 46.20476 | 15436 ft | 376 kts | 236° |
| 2026-04-28 22:00 | 24.70754 | 46.18089 | 15861 ft | 377 kts | 236° |
| 2026-04-28 22:00 | 24.69280 | 46.15699 | 16282 ft | 378 kts | 236° |
| 2026-04-28 22:01 | 24.67803 | 46.13307 | 16701 ft | 379 kts | 236° |
| 2026-04-28 22:01 | 24.66321 | 46.10909 | 17112 ft | 380 kts | 236° |
| 2026-04-28 22:01 | 24.64833 | 46.08504 | 17519 ft | 381 kts | 236° |
| 2026-04-28 22:01 | 24.63343 | 46.06093 | 17936 ft | 382 kts | 236° |
| 2026-04-28 22:02 | 24.61848 | 46.03674 | 18334 ft | 383 kts | 236° |
| 2026-04-28 22:02 | 24.60351 | 46.01250 | 18702 ft | 384 kts | 236° |
| 2026-04-28 22:02 | 24.58849 | 45.98818 | 19069 ft | 385 kts | 236° |
| 2026-04-28 22:02 | 24.57362 | 45.96412 | 19434 ft | 386 kts | 236° |
| 2026-04-28 22:03 | 24.55847 | 45.93966 | 19788 ft | 388 kts | 236° |
| 2026-04-28 22:03 | 24.54326 | 45.91513 | 19907 ft | 388 kts | 236° |
| 2026-04-28 22:03 | 24.52808 | 45.89064 | 19934 ft | 388 kts | 236° |
| 2026-04-28 22:03 | 24.51288 | 45.86614 | 19940 ft | 388 kts | 236° |
| 2026-04-28 22:04 | 24.49769 | 45.84169 | 19938 ft | 388 kts | 236° |
| 2026-04-28 22:04 | 24.48250 | 45.81725 | 19937 ft | 388 kts | 236° |
| 2026-04-28 22:04 | 24.46730 | 45.79280 | 19941 ft | 388 kts | 236° |
| 2026-04-28 22:04 | 24.45249 | 45.76809 | 19931 ft | 388 kts | 240° |
| 2026-04-28 22:05 | 24.44041 | 45.74158 | 19930 ft | 389 kts | 243° |
| 2026-04-28 22:05 | 24.42862 | 45.71490 | 19930 ft | 389 kts | 243° |
| 2026-04-28 22:05 | 24.41680 | 45.68824 | 19935 ft | 389 kts | 243° |
| 2026-04-28 22:05 | 24.40495 | 45.66158 | 19934 ft | 389 kts | 243° |
| 2026-04-28 22:06 | 24.39308 | 45.63494 | 19936 ft | 389 kts | 243° |
| 2026-04-28 22:06 | 24.38123 | 45.60833 | 19941 ft | 388 kts | 243° |
| 2026-04-28 22:06 | 24.36935 | 45.58172 | 19941 ft | 388 kts | 243° |
| 2026-04-28 22:06 | 24.35750 | 45.55513 | 19938 ft | 388 kts | 243° |
| 2026-04-28 22:07 | 24.34581 | 45.52888 | 19938 ft | 388 kts | 243° |
| 2026-04-28 22:07 | 24.33395 | 45.50229 | 19940 ft | 388 kts | 243° |
| 2026-04-28 22:07 | 24.32209 | 45.47572 | 19938 ft | 388 kts | 243° |
| 2026-04-28 22:07 | 24.31024 | 45.44914 | 19943 ft | 388 kts | 243° |
| 2026-04-28 22:08 | 24.29838 | 45.42259 | 19943 ft | 388 kts | 243° |
| 2026-04-28 22:08 | 24.28651 | 45.39604 | 19946 ft | 388 kts | 243° |
| 2026-04-28 22:08 | 24.27464 | 45.36950 | 19954 ft | 388 kts | 243° |
| 2026-04-28 22:08 | 24.26277 | 45.34292 | 19946 ft | 388 kts | 243° |
| 2026-04-28 22:09 | 24.25091 | 45.31637 | 19948 ft | 388 kts | 243° |
| 2026-04-28 22:09 | 24.23901 | 45.28982 | 19996 ft | 390 kts | 243° |
| 2026-04-28 22:09 | 24.22702 | 45.26309 | 20361 ft | 391 kts | 243° |
| 2026-04-28 22:09 | 24.21498 | 45.23627 | 20750 ft | 393 kts | 243° |
| 2026-04-28 22:10 | 24.20290 | 45.20937 | 21116 ft | 395 kts | 243° |
| 2026-04-28 22:10 | 24.19077 | 45.18238 | 21521 ft | 395 kts | 243° |
| 2026-04-28 22:10 | 24.17859 | 45.15532 | 21892 ft | 397 kts | 243° |
| 2026-04-28 22:10 | 24.16636 | 45.12818 | 22244 ft | 398 kts | 243° |
| 2026-04-28 22:11 | 24.15409 | 45.10089 | 22587 ft | 400 kts | 243° |
| 2026-04-28 22:11 | 24.14179 | 45.07347 | 22912 ft | 402 kts | 243° |
| 2026-04-28 22:11 | 24.12943 | 45.04591 | 23247 ft | 404 kts | 242° |
| 2026-04-28 22:11 | 24.11717 | 45.01865 | 23567 ft | 406 kts | 243° |
| 2026-04-28 22:12 | 24.10464 | 44.99089 | 23848 ft | 408 kts | 243° |
| 2026-04-28 22:12 | 24.09202 | 44.96297 | 24081 ft | 410 kts | 243° |
| 2026-04-28 22:12 | 24.07934 | 44.93492 | 24340 ft | 412 kts | 243° |
| 2026-04-28 22:12 | 24.06663 | 44.90679 | 24604 ft | 413 kts | 243° |
| 2026-04-28 22:13 | 24.05384 | 44.87855 | 24865 ft | 415 kts | 243° |
| 2026-04-28 22:13 | 24.04103 | 44.85026 | 25106 ft | 416 kts | 243° |
| 2026-04-28 22:13 | 24.02818 | 44.82187 | 25345 ft | 417 kts | 243° |
| 2026-04-28 22:13 | 24.01527 | 44.79337 | 25571 ft | 419 kts | 243° |
| 2026-04-28 22:14 | 24.00232 | 44.76478 | 25791 ft | 420 kts | 243° |
| 2026-04-28 22:14 | 23.98933 | 44.73616 | 25979 ft | 420 kts | 244° |
| 2026-04-28 22:14 | 23.97631 | 44.70752 | 26208 ft | 420 kts | 244° |
| 2026-04-28 22:14 | 23.96328 | 44.67889 | 26390 ft | 421 kts | 244° |
| 2026-04-28 22:15 | 23.95022 | 44.65019 | 26561 ft | 422 kts | 244° |
| 2026-04-28 22:15 | 23.93712 | 44.62140 | 26706 ft | 423 kts | 244° |
| 2026-04-28 22:15 | 23.92549 | 44.59186 | 26851 ft | 424 kts | 251° |
| 2026-04-28 22:15 | 23.91807 | 44.56059 | 26974 ft | 426 kts | 256° |
| 2026-04-28 22:16 | 23.91145 | 44.52898 | 27098 ft | 427 kts | 256° |
| 2026-04-28 22:16 | 23.90481 | 44.49734 | 27235 ft | 427 kts | 256° |
| 2026-04-28 22:16 | 23.89815 | 44.46575 | 27392 ft | 427 kts | 256° |
| 2026-04-28 22:16 | 23.89144 | 44.43417 | 27569 ft | 426 kts | 256° |
| 2026-04-28 22:17 | 23.88472 | 44.40269 | 27735 ft | 425 kts | 256° |
| 2026-04-28 22:17 | 23.87808 | 44.37167 | 27892 ft | 425 kts | 256° |
| 2026-04-28 22:17 | 23.87134 | 44.34022 | 28062 ft | 425 kts | 256° |
| 2026-04-28 22:17 | 23.86460 | 44.30881 | 28219 ft | 424 kts | 256° |
| 2026-04-28 22:18 | 23.85787 | 44.27746 | 28382 ft | 424 kts | 256° |
| 2026-04-28 22:18 | 23.85113 | 44.24611 | 28545 ft | 423 kts | 256° |
| 2026-04-28 22:18 | 23.84441 | 44.21481 | 28709 ft | 423 kts | 256° |
| 2026-04-28 22:18 | 23.83769 | 44.18359 | 28873 ft | 422 kts | 256° |
| 2026-04-28 22:19 | 23.83099 | 44.15240 | 29026 ft | 421 kts | 256° |
| 2026-04-28 22:19 | 23.82428 | 44.12127 | 29184 ft | 421 kts | 256° |
| 2026-04-28 22:19 | 23.81754 | 44.09019 | 29334 ft | 420 kts | 256° |
| 2026-04-28 22:19 | 23.81081 | 44.05918 | 29483 ft | 420 kts | 256° |
| 2026-04-28 22:20 | 23.80411 | 44.02818 | 29632 ft | 419 kts | 256° |
| 2026-04-28 22:20 | 23.79742 | 43.99722 | 29745 ft | 419 kts | 256° |
| 2026-04-28 22:20 | 23.79074 | 43.96628 | 29889 ft | 419 kts | 256° |
| 2026-04-28 22:20 | 23.78404 | 43.93536 | 30018 ft | 418 kts | 256° |
| 2026-04-28 22:21 | 23.77733 | 43.90446 | 30147 ft | 418 kts | 256° |
| 2026-04-28 22:21 | 23.77062 | 43.87357 | 30248 ft | 418 kts | 256° |
| 2026-04-28 22:21 | 23.76392 | 43.84274 | 30353 ft | 418 kts | 256° |
| 2026-04-28 22:21 | 23.75718 | 43.81189 | 30485 ft | 417 kts | 256° |
| 2026-04-28 22:22 | 23.75043 | 43.78111 | 30610 ft | 417 kts | 256° |
| 2026-04-28 22:22 | 23.74366 | 43.75034 | 30732 ft | 417 kts | 256° |
| 2026-04-28 22:22 | 23.73690 | 43.71959 | 30863 ft | 416 kts | 256° |
| 2026-04-28 22:22 | 23.73022 | 43.68931 | 30986 ft | 416 kts | 256° |
| 2026-04-28 22:23 | 23.72342 | 43.65869 | 31127 ft | 415 kts | 256° |
| 2026-04-28 22:23 | 23.71663 | 43.62804 | 31272 ft | 415 kts | 257° |
| 2026-04-28 22:23 | 23.70990 | 43.59749 | 31393 ft | 414 kts | 257° |
| 2026-04-28 22:23 | 23.70316 | 43.56692 | 31518 ft | 415 kts | 257° |
| 2026-04-28 22:24 | 23.69639 | 43.53630 | 31634 ft | 415 kts | 257° |
| 2026-04-28 22:24 | 23.68959 | 43.50573 | 31775 ft | 415 kts | 257° |
| 2026-04-28 22:24 | 23.68279 | 43.47516 | 31918 ft | 414 kts | 257° |
| 2026-04-28 22:24 | 23.67600 | 43.44463 | 32079 ft | 414 kts | 257° |
| 2026-04-28 22:25 | 23.66924 | 43.41410 | 32242 ft | 414 kts | 257° |
| 2026-04-28 22:25 | 23.66251 | 43.38362 | 32407 ft | 413 kts | 257° |
| 2026-04-28 22:25 | 23.65580 | 43.35320 | 32562 ft | 412 kts | 257° |
| 2026-04-28 22:25 | 23.64905 | 43.32285 | 32730 ft | 412 kts | 257° |
| 2026-04-28 22:26 | 23.64227 | 43.29255 | 32890 ft | 411 kts | 257° |
| 2026-04-28 22:26 | 23.63548 | 43.26228 | 33057 ft | 411 kts | 257° |
| 2026-04-28 22:26 | 23.62872 | 43.23203 | 33213 ft | 410 kts | 257° |
| 2026-04-28 22:26 | 23.62198 | 43.20183 | 33397 ft | 409 kts | 257° |
| 2026-04-28 22:27 | 23.61526 | 43.17166 | 33520 ft | 410 kts | 257° |
| 2026-04-28 22:27 | 23.60853 | 43.14146 | 33650 ft | 410 kts | 257° |
| 2026-04-28 22:27 | 23.60177 | 43.11126 | 33797 ft | 410 kts | 257° |
| 2026-04-28 22:27 | 23.59506 | 43.08149 | 33960 ft | 410 kts | 257° |
| 2026-04-28 22:28 | 23.58828 | 43.05135 | 34112 ft | 409 kts | 257° |
| 2026-04-28 22:28 | 23.58150 | 43.02124 | 34256 ft | 409 kts | 256° |
| 2026-04-28 22:28 | 23.57471 | 42.99116 | 34402 ft | 408 kts | 256° |
| 2026-04-28 22:28 | 23.56795 | 42.96110 | 34546 ft | 408 kts | 256° |
| 2026-04-28 22:29 | 23.56120 | 42.93107 | 34685 ft | 408 kts | 256° |
| 2026-04-28 22:29 | 23.55444 | 42.90102 | 34828 ft | 408 kts | 256° |
| 2026-04-28 22:29 | 23.54767 | 42.87101 | 34967 ft | 408 kts | 256° |
| 2026-04-28 22:29 | 23.54087 | 42.84102 | 35110 ft | 408 kts | 256° |
| 2026-04-28 22:30 | 23.53407 | 42.81104 | 35252 ft | 408 kts | 256° |
| 2026-04-28 22:30 | 23.52727 | 42.78107 | 35396 ft | 407 kts | 256° |
| 2026-04-28 22:30 | 23.52049 | 42.75110 | 35537 ft | 407 kts | 256° |
| 2026-04-28 22:30 | 23.51373 | 42.72115 | 35664 ft | 407 kts | 256° |
| 2026-04-28 22:31 | 23.50697 | 42.69121 | 35820 ft | 407 kts | 256° |
| 2026-04-28 22:31 | 23.50017 | 42.66128 | 35957 ft | 407 kts | 256° |
| 2026-04-28 22:31 | 23.49335 | 42.63138 | 36098 ft | 407 kts | 256° |
| 2026-04-28 22:31 | 23.48651 | 42.60147 | 36244 ft | 406 kts | 256° |
| 2026-04-28 22:32 | 23.47969 | 42.57165 | 36400 ft | 406 kts | 256° |
| 2026-04-28 22:32 | 23.47294 | 42.54227 | 36541 ft | 405 kts | 256° |
| 2026-04-28 22:32 | 23.46612 | 42.51250 | 36675 ft | 405 kts | 256° |
| 2026-04-28 22:32 | 23.45933 | 42.48274 | 36802 ft | 405 kts | 256° |
| 2026-04-28 22:33 | 23.45255 | 42.45298 | 36924 ft | 405 kts | 256° |
| 2026-04-28 22:33 | 23.44577 | 42.42325 | 37050 ft | 405 kts | 256° |
| 2026-04-28 22:33 | 23.43898 | 42.39357 | 37199 ft | 404 kts | 255° |
| 2026-04-28 22:33 | 23.43218 | 42.36392 | 37327 ft | 403 kts | 255° |
| 2026-04-28 22:34 | 23.42539 | 42.33431 | 37456 ft | 403 kts | 255° |
| 2026-04-28 22:34 | 23.41861 | 42.30475 | 37584 ft | 402 kts | 255° |
| 2026-04-28 22:34 | 23.41180 | 42.27520 | 37711 ft | 402 kts | 255° |
| 2026-04-28 22:34 | 23.40499 | 42.24572 | 37843 ft | 401 kts | 255° |
| 2026-04-28 22:35 | 23.39819 | 42.21630 | 37988 ft | 401 kts | 255° |
| 2026-04-28 22:35 | 23.38457 | 42.15727 | 38019 ft | 403 kts | 255° |
| 2026-04-28 22:36 | 23.37094 | 42.09815 | 38023 ft | 403 kts | 255° |
| 2026-04-28 22:36 | 23.35724 | 42.03898 | 38019 ft | 403 kts | 255° |
| 2026-04-28 22:37 | 23.34357 | 41.98028 | 38025 ft | 403 kts | 255° |
| 2026-04-28 22:37 | 23.32987 | 41.92115 | 38013 ft | 403 kts | 255° |
| 2026-04-28 22:38 | 23.31613 | 41.86196 | 38017 ft | 404 kts | 255° |
| 2026-04-28 22:38 | 23.30226 | 41.80267 | 38019 ft | 405 kts | 255° |
| 2026-04-28 22:39 | 23.28832 | 41.74331 | 38041 ft | 405 kts | 254° |
| 2026-04-28 22:39 | 23.26443 | 41.68816 | 38041 ft | 406 kts | 239° |
| 2026-04-28 22:40 | 23.23373 | 41.63648 | 38033 ft | 406 kts | 239° |
| 2026-04-28 22:40 | 23.20321 | 41.58473 | 38029 ft | 407 kts | 239° |
| 2026-04-28 22:41 | 23.17267 | 41.53297 | 38049 ft | 406 kts | 239° |
| 2026-04-28 22:41 | 23.14215 | 41.48135 | 38049 ft | 406 kts | 239° |
| 2026-04-28 22:42 | 23.11160 | 41.42975 | 38050 ft | 406 kts | 239° |
| 2026-04-28 22:42 | 23.08098 | 41.37826 | 38060 ft | 406 kts | 239° |
| 2026-04-28 22:43 | 23.05035 | 41.32676 | 38046 ft | 406 kts | 239° |
| 2026-04-28 22:43 | 23.01977 | 41.27522 | 38062 ft | 406 kts | 239° |
| 2026-04-28 22:44 | 22.98909 | 41.22371 | 38064 ft | 406 kts | 238° |
| 2026-04-28 22:44 | 22.95838 | 41.17217 | 38062 ft | 407 kts | 239° |
| 2026-04-28 22:45 | 22.92767 | 41.12063 | 38070 ft | 407 kts | 239° |
| 2026-04-28 22:45 | 22.89698 | 41.06911 | 38065 ft | 406 kts | 239° |
| 2026-04-28 22:46 | 22.86642 | 41.01799 | 38052 ft | 407 kts | 238° |
| 2026-04-28 22:46 | 22.84059 | 40.97487 | 38053 ft | 407 kts | 238° |
| 2026-04-28 22:47 | 22.80978 | 40.92339 | 38056 ft | 407 kts | 238° |
| 2026-04-28 22:47 | 22.77897 | 40.87197 | 38064 ft | 407 kts | 238° |
| 2026-04-28 22:48 | 22.74810 | 40.82049 | 38061 ft | 407 kts | 238° |
| 2026-04-28 22:48 | 22.71722 | 40.76910 | 38043 ft | 407 kts | 238° |
| 2026-04-28 22:49 | 22.68625 | 40.71765 | 38052 ft | 408 kts | 238° |
| 2026-04-28 22:49 | 22.65526 | 40.66613 | 38056 ft | 408 kts | 238° |
| 2026-04-28 22:50 | 22.62421 | 40.61464 | 38062 ft | 409 kts | 238° |
| 2026-04-28 22:50 | 22.59312 | 40.56306 | 38065 ft | 409 kts | 238° |
| 2026-04-28 22:51 | 22.56200 | 40.51149 | 38056 ft | 409 kts | 238° |
| 2026-04-28 22:51 | 22.53080 | 40.45988 | 38070 ft | 410 kts | 238° |
| 2026-04-28 22:52 | 22.49961 | 40.40831 | 37417 ft | 410 kts | 238° |
| 2026-04-28 22:52 | 22.48402 | 40.38257 | 36801 ft | 407 kts | 238° |
| 2026-04-28 22:52 | 22.46862 | 40.35717 | 36279 ft | 402 kts | 239° |
| 2026-04-28 22:52 | 22.45338 | 40.33203 | 35770 ft | 398 kts | 239° |
| 2026-04-28 22:53 | 22.43851 | 40.30746 | 35285 ft | 394 kts | 239° |
| 2026-04-28 22:53 | 22.42361 | 40.28281 | 34804 ft | 390 kts | 239° |
| 2026-04-28 22:53 | 22.40884 | 40.25836 | 34331 ft | 387 kts | 239° |
| 2026-04-28 22:53 | 22.39417 | 40.23418 | 33767 ft | 381 kts | 239° |
| 2026-04-28 22:54 | 22.37968 | 40.21036 | 32938 ft | 378 kts | 239° |
| 2026-04-28 22:54 | 22.36532 | 40.18679 | 32147 ft | 374 kts | 240° |
| 2026-04-28 22:54 | 22.35112 | 40.16346 | 31365 ft | 369 kts | 240° |
| 2026-04-28 22:54 | 22.33708 | 40.14038 | 30548 ft | 365 kts | 240° |
| 2026-04-28 22:55 | 22.32325 | 40.11766 | 29660 ft | 361 kts | 240° |
| 2026-04-28 22:55 | 22.30949 | 40.09506 | 28750 ft | 356 kts | 240° |
| 2026-04-28 22:55 | 22.29597 | 40.07287 | 27736 ft | 353 kts | 240° |
| 2026-04-28 22:55 | 22.28248 | 40.05075 | 26504 ft | 352 kts | 239° |
| 2026-04-28 22:56 | 22.26903 | 40.02869 | 25212 ft | 352 kts | 238° |
| 2026-04-28 22:56 | 22.25561 | 40.00667 | 23993 ft | 351 kts | 238° |
| 2026-04-28 22:56 | 22.24226 | 39.98477 | 22607 ft | 347 kts | 237° |
| 2026-04-28 22:56 | 22.22899 | 39.96302 | 21215 ft | 347 kts | 237° |
| 2026-04-28 22:57 | 22.21575 | 39.94129 | 20017 ft | 344 kts | 237° |
| 2026-04-28 22:57 | 22.20293 | 39.92028 | 19461 ft | 324 kts | 237° |
| 2026-04-28 22:57 | 22.18966 | 39.90135 | 19232 ft | 314 kts | 224° |
| 2026-04-28 22:57 | 22.17102 | 39.88927 | 19097 ft | 317 kts | 200° |
| 2026-04-28 22:58 | 22.14903 | 39.88705 | 18988 ft | 327 kts | 175° |
| 2026-04-28 22:58 | 22.12722 | 39.89537 | 18997 ft | 337 kts | 159° |
| 2026-04-28 22:58 | 22.10547 | 39.90365 | 18837 ft | 326 kts | 178° |
| 2026-04-28 22:58 | 22.08345 | 39.90218 | 18397 ft | 313 kts | 199° |
| 2026-04-28 22:59 | 22.06381 | 39.89280 | 17886 ft | 307 kts | 216° |
| 2026-04-28 22:59 | 22.04790 | 39.87777 | 17382 ft | 303 kts | 231° |
| 2026-04-28 22:59 | 22.03705 | 39.85849 | 16918 ft | 301 kts | 248° |
| 2026-04-28 22:59 | 22.03084 | 39.83731 | 16416 ft | 300 kts | 249° |
| 2026-04-28 23:00 | 22.02204 | 39.81704 | 15961 ft | 298 kts | 242° |
| 2026-04-28 23:00 | 22.01192 | 39.79760 | 15526 ft | 297 kts | 239° |
| 2026-04-28 23:00 | 22.00139 | 39.77852 | 15090 ft | 296 kts | 239° |
| 2026-04-28 23:00 | 21.99085 | 39.75954 | 14647 ft | 295 kts | 239° |
| 2026-04-28 23:01 | 21.98045 | 39.74054 | 14226 ft | 294 kts | 239° |
| 2026-04-28 23:01 | 21.97020 | 39.72154 | 13807 ft | 293 kts | 239° |
| 2026-04-28 23:01 | 21.95984 | 39.70267 | 13351 ft | 292 kts | 234° |
| 2026-04-28 23:01 | 21.94570 | 39.68728 | 12915 ft | 289 kts | 220° |
| 2026-04-28 23:02 | 21.93016 | 39.67354 | 12478 ft | 288 kts | 220° |
| 2026-04-28 23:02 | 21.91469 | 39.65996 | 12042 ft | 286 kts | 220° |
| 2026-04-28 23:02 | 21.89932 | 39.64648 | 11620 ft | 284 kts | 220° |
| 2026-04-28 23:02 | 21.88404 | 39.63310 | 11222 ft | 282 kts | 220° |
| 2026-04-28 23:03 | 21.86895 | 39.61991 | 10821 ft | 280 kts | 220° |
| 2026-04-28 23:03 | 21.85382 | 39.60666 | 10421 ft | 278 kts | 220° |
| 2026-04-28 23:03 | 21.83887 | 39.59354 | 10017 ft | 277 kts | 220° |
| 2026-04-28 23:03 | 21.82401 | 39.58048 | 9594 ft | 275 kts | 219° |
| 2026-04-28 23:04 | 21.80917 | 39.56747 | 9094 ft | 275 kts | 220° |
| 2026-04-28 23:04 | 21.77950 | 39.54151 | 8192 ft | 274 kts | 220° |
| 2026-04-28 23:04 | 21.76476 | 39.52859 | 7763 ft | 273 kts | 220° |
| 2026-04-28 23:05 | 21.75008 | 39.51571 | 7331 ft | 272 kts | 220° |
| 2026-04-28 23:05 | 21.73523 | 39.50269 | 6894 ft | 271 kts | 220° |
| 2026-04-28 23:05 | 21.72088 | 39.49014 | 6478 ft | 270 kts | 220° |
| 2026-04-28 23:05 | 21.70635 | 39.47743 | 6027 ft | 269 kts | 220° |
| 2026-04-28 23:06 | 21.69189 | 39.46476 | 5575 ft | 268 kts | 220° |
| 2026-04-28 23:06 | 21.67747 | 39.45214 | 5120 ft | 267 kts | 221° |
| 2026-04-28 23:06 | 21.66307 | 39.43956 | 4682 ft | 266 kts | 221° |
| 2026-04-28 23:06 | 21.64878 | 39.42707 | 4549 ft | 266 kts | 221° |
| 2026-04-28 23:07 | 21.63435 | 39.41446 | 4554 ft | 268 kts | 221° |
| 2026-04-28 23:07 | 21.61984 | 39.40179 | 4551 ft | 270 kts | 220° |
| 2026-04-28 23:07 | 21.60527 | 39.38907 | 4542 ft | 270 kts | 220° |
| 2026-04-28 23:07 | 21.59090 | 39.37654 | 4543 ft | 270 kts | 220° |
| 2026-04-28 23:08 | 21.57634 | 39.36384 | 4521 ft | 270 kts | 220° |
| 2026-04-28 23:08 | 21.56175 | 39.35111 | 4522 ft | 270 kts | 220° |
| 2026-04-28 23:08 | 21.54575 | 39.34050 | 4520 ft | 270 kts | 204° |
| 2026-04-28 23:08 | 21.52799 | 39.33645 | 4516 ft | 253 kts | 184° |
| 2026-04-28 23:09 | 21.51131 | 39.33854 | 4535 ft | 230 kts | 166° |
| 2026-04-28 23:09 | 21.49670 | 39.34411 | 4523 ft | 218 kts | 162° |
| 2026-04-28 23:09 | 21.48257 | 39.34965 | 4526 ft | 215 kts | 162° |
| 2026-04-28 23:09 | 21.46852 | 39.35514 | 4550 ft | 214 kts | 162° |
| 2026-04-28 23:10 | 21.45459 | 39.36058 | 4533 ft | 212 kts | 162° |
| 2026-04-28 23:10 | 21.44021 | 39.36249 | 4524 ft | 209 kts | 193° |
| 2026-04-28 23:10 | 21.42779 | 39.35526 | 4531 ft | 204 kts | 229° |
| 2026-04-28 23:10 | 21.42116 | 39.34210 | 4541 ft | 200 kts | 251° |
| 2026-04-28 23:11 | 21.41667 | 39.32800 | 4535 ft | 199 kts | 253° |
| 2026-04-28 23:11 | 21.41272 | 39.31378 | 4528 ft | 198 kts | 260° |
| 2026-04-28 23:11 | 21.41381 | 39.29924 | 4517 ft | 196 kts | 285° |
| 2026-04-28 23:11 | 21.41939 | 39.28615 | 4181 ft | 193 kts | 303° |
| 2026-04-28 23:12 | 21.42866 | 39.27595 | 4024 ft | 192 kts | 323° |
| 2026-04-28 23:12 | 21.44061 | 39.26939 | 4027 ft | 195 kts | 338° |
| 2026-04-28 23:12 | 21.45342 | 39.26438 | 4023 ft | 196 kts | 338° |
| 2026-04-28 23:12 | 21.46621 | 39.25935 | 3977 ft | 196 kts | 338° |
| 2026-04-28 23:13 | 21.47901 | 39.25432 | 3787 ft | 195 kts | 339° |
| 2026-04-28 23:13 | 21.49164 | 39.24936 | 3562 ft | 192 kts | 338° |
| 2026-04-28 23:13 | 21.50439 | 39.24434 | 3324 ft | 200 kts | 338° |
| 2026-04-28 23:13 | 21.51713 | 39.23933 | 3069 ft | 190 kts | 339° |
| 2026-04-28 23:14 | 21.52920 | 39.23459 | 2827 ft | 180 kts | 339° |
| 2026-04-28 23:14 | 21.54070 | 39.23007 | 2601 ft | 172 kts | 340° |
| 2026-04-28 23:14 | 21.55169 | 39.22574 | 2386 ft | 165 kts | 340° |
| 2026-04-28 23:14 | 21.56223 | 39.22159 | 2175 ft | 158 kts | 340° |
| 2026-04-28 23:15 | 21.57228 | 39.21763 | 1987 ft | 149 kts | 340° |
| 2026-04-28 23:15 | 21.58176 | 39.21390 | 1790 ft | 143 kts | 341° |
| 2026-04-28 23:15 | 21.58787 | 39.21149 | 1672 ft | 139 kts | 341° |
| 2026-04-28 23:15 | 21.59968 | 39.20684 | 1431 ft | 133 kts | 341° |
| 2026-04-28 23:16 | 21.60830 | 39.20346 | 1251 ft | 131 kts | 341° |
| 2026-04-28 23:16 | 21.61668 | 39.20001 | 1046 ft | 131 kts | 340° |
| 2026-04-28 23:16 | 21.62520 | 39.19661 | 916 ft | 131 kts | 341° |
| 2026-04-28 23:16 | 21.63369 | 39.19317 | 673 ft | 129 kts | 340° |
| 2026-04-28 23:17 | 21.64209 | 39.18989 | 517 ft | 129 kts | 342° |
| 2026-04-28 23:17 | 21.65061 | 39.18663 | 383 ft | 131 kts | 342° |
| 2026-04-28 23:17 | 21.65920 | 39.18320 | 222 ft | 132 kts | 342° |
| 2026-04-28 23:17 | 21.66791 | 39.17988 | 68 ft | 133 kts | 340° |
| 2026-04-28 23:18 | 21.67603 | 39.17669 | 36 ft | 113 kts | 342° |
| 2026-04-28 23:18 | 21.68074 | 39.17490 | 30 ft | 28 kts | 340° |
| 2026-04-28 23:18 | 21.68173 | 39.17450 | 29 ft | 20 kts | 338° |
| 2026-04-28 23:18 | 21.68304 | 39.17367 | 27 ft | 22 kts | 311° |
| 2026-04-28 23:19 | 21.68382 | 39.17256 | 27 ft | 12 kts | 308° |
| 2026-04-28 23:19 | 21.68430 | 39.17189 | 27 ft | 11 kts | 307° |
| 2026-04-28 23:19 | 21.68474 | 39.17125 | 28 ft | 10 kts | 307° |
| 2026-04-28 23:19 | 21.68506 | 39.17063 | 28 ft | 9 kts | 268° |
| 2026-04-28 23:20 | 21.68476 | 39.17021 | 28 ft | 7 kts | 188° |
| 2026-04-28 23:20 | 21.68407 | 39.17025 | 28 ft | 13 kts | 165° |
| 2026-04-28 23:20 | 21.68305 | 39.17066 | 29 ft | 19 kts | 160° |
| 2026-04-28 23:20 | 21.68208 | 39.17103 | 29 ft | 17 kts | 160° |
| 2026-04-28 23:21 | 21.68078 | 39.17152 | 30 ft | 23 kts | 160° |
| 2026-04-28 23:21 | 21.67917 | 39.17217 | 31 ft | 26 kts | 159° |
| 2026-04-28 23:21 | 21.67815 | 39.17257 | 31 ft | 10 kts | 161° |
| 2026-04-28 23:21 | 21.67726 | 39.17292 | 32 ft | 17 kts | 159° |
| 2026-04-28 23:22 | 21.67599 | 39.17345 | 32 ft | 23 kts | 160° |
| 2026-04-28 23:22 | 21.67456 | 39.17401 | 33 ft | 21 kts | 160° |
| 2026-04-28 23:22 | 21.67313 | 39.17457 | 33 ft | 18 kts | 160° |
| 2026-04-28 23:22 | 21.67211 | 39.17472 | 33 ft | 14 kts | 223° |
| 2026-04-28 23:23 | 21.67143 | 39.17370 | 33 ft | 20 kts | 225° |
| 2026-04-28 23:23 | 21.67079 | 39.17307 | 34 ft | 8 kts | 217° |
| 2026-04-28 23:23 | 21.67056 | 39.17289 | 32 ft | 3 kts | 219° |
| 2026-04-28 23:23 | 21.67054 | 39.17243 | 34 ft | 8 kts | 292° |
| 2026-04-28 23:24 | 21.67071 | 39.17199 | 34 ft | 0 kts | 290° |